Time;durP1;ratioP1;P1;durP2;ratioP2;P2;SDS_P1;SDS_P2;PMS_P1;PMS_P2;Temp;Humidity;BMP_temperature;BMP_pressure;BME280_temperature;BME280_humidity;BME280_pressure;Samples;Min_cycle;Max_cycle;Signal;HPM_P1;HPM_P2
2023/09/30 00:01:18;;;;;;;2.40;1.23;;;18.60;99.90;;;;;;6212820;23;20015;-73
2023/09/30 00:04:06;;;;;;;2.97;1.65;;;18.70;99.90;;;;;;6212306;23;20393;-72
2023/09/30 00:06:52;;;;;;;2.65;1.50;;;18.70;99.90;;;;;;6211410;23;20497;-75
2023/09/30 00:09:39;;;;;;;4.32;1.65;;;18.70;99.90;;;;;;6212015;23;20039;-74
2023/09/30 00:12:26;;;;;;;4.72;1.80;;;18.60;99.90;;;;;;6212457;23;20110;-72
2023/09/30 00:15:12;;;;;;;4.40;1.60;;;18.60;99.90;;;;;;6210955;23;20015;-74
2023/09/30 00:17:59;;;;;;;8.80;1.85;;;18.60;99.90;;;;;;6211052;23;20013;-76
2023/09/30 00:20:45;;;;;;;4.47;1.50;;;18.60;99.90;;;;;;6213048;23;20008;-77
2023/09/30 00:23:30;;;;;;;5.40;1.88;;;18.60;99.90;;;;;;6210248;23;20009;-75
2023/09/30 00:26:16;;;;;;;8.00;2.50;;;18.60;99.90;;;;;;6232210;23;20020;-76
2023/09/30 00:29:04;;;;;;;10.25;2.45;;;18.50;99.90;;;;;;6241723;23;20020;-75
2023/09/30 00:31:50;;;;;;;6.60;1.60;;;18.40;99.90;;;;;;6242539;23;20012;-75
2023/09/30 00:34:36;;;;;;;5.00;1.73;;;18.30;99.70;;;;;;6241723;23;20012;-73
2023/09/30 00:37:22;;;;;;;5.60;1.88;;;18.20;99.70;;;;;;6241640;23;20097;-75
2023/09/30 00:40:11;;;;;;;3.70;2.35;;;18.10;99.60;;;;;;6241286;23;20012;-77
2023/09/30 00:42:58;;;;;;;7.70;2.00;;;17.90;99.70;;;;;;6242309;23;20345;-78
2023/09/30 00:45:44;;;;;;;8.48;2.40;;;17.90;99.60;;;;;;6242479;23;20088;-76
2023/09/30 00:48:30;;;;;;;4.47;2.08;;;17.90;99.70;;;;;;6241560;23;20365;-76
2023/09/30 00:51:16;;;;;;;6.50;2.13;;;17.80;99.70;;;;;;6241857;23;20103;-77
2023/09/30 00:54:03;;;;;;;3.95;1.40;;;17.80;99.70;;;;;;6241688;23;20020;-78
2023/09/30 00:56:51;;;;;;;4.63;2.08;;;17.80;99.60;;;;;;6239495;22;20031;-78
2023/09/30 00:59:37;;;;;;;4.97;1.95;;;17.80;99.60;;;;;;6242767;23;20015;-76
2023/09/30 01:02:24;;;;;;;7.43;2.40;;;17.80;99.60;;;;;;6241104;23;20009;-79
2023/09/30 01:05:10;;;;;;;9.75;2.35;;;17.70;99.60;;;;;;6240656;23;20012;-78
2023/09/30 01:07:56;;;;;;;5.13;1.98;;;17.70;99.60;;;;;;6241193;23;20379;-76
2023/09/30 01:10:42;;;;;;;9.95;2.78;;;17.60;99.50;;;;;;6241247;23;20012;-75
2023/09/30 01:13:35;;;;;;;6.43;1.70;;;17.50;99.50;;;;;;6240378;23;20597;-78
2023/09/30 01:16:21;;;;;;;6.43;2.22;;;17.50;99.50;;;;;;6240650;23;20107;-77
2023/09/30 01:19:07;;;;;;;4.85;1.80;;;17.50;99.50;;;;;;6240835;23;20015;-79
2023/09/30 01:22:00;;;;;;;6.70;2.05;;;17.40;99.60;;;;;;6240879;23;20050;-77
2023/09/30 01:24:47;;;;;;;4.05;1.70;;;17.40;99.60;;;;;;6240855;23;20647;-78
2023/09/30 01:27:33;;;;;;;6.80;2.10;;;17.30;99.70;;;;;;6239872;23;20032;-77
2023/09/30 01:30:19;;;;;;;8.25;2.13;;;17.30;99.80;;;;;;6239590;23;20076;-78
2023/09/30 01:33:07;;;;;;;4.05;1.58;;;17.20;99.70;;;;;;6241601;23;20450;-75
2023/09/30 01:35:53;;;;;;;8.48;2.75;;;17.20;99.70;;;;;;6238446;23;20043;-77
2023/09/30 01:38:39;;;;;;;6.90;3.30;;;17.20;99.70;;;;;;6240999;23;20342;-76
2023/09/30 01:41:26;;;;;;;9.30;2.20;;;17.10;99.70;;;;;;6240744;23;20031;-77
2023/09/30 01:44:12;;;;;;;5.75;2.08;;;17.00;99.70;;;;;;6240584;23;20008;-77
2023/09/30 01:46:58;;;;;;;8.40;2.10;;;16.90;99.70;;;;;;6239716;23;20015;-75
2023/09/30 01:49:44;;;;;;;12.45;2.88;;;16.90;99.70;;;;;;6218233;23;20020;-76
2023/09/30 01:52:30;;;;;;;7.95;2.83;;;16.90;99.70;;;;;;6240419;23;20073;-78
2023/09/30 01:55:16;;;;;;;9.13;2.63;;;16.80;99.80;;;;;;6240339;22;20365;-78
2023/09/30 01:58:02;;;;;;;6.40;2.50;;;16.80;99.80;;;;;;6218765;23;20521;-75
2023/09/30 02:00:48;;;;;;;7.10;2.20;;;16.80;99.80;;;;;;6227902;23;20377;-78
2023/09/30 02:03:34;;;;;;;9.82;2.35;;;16.70;99.80;;;;;;6240409;23;20030;-77
2023/09/30 02:06:20;;;;;;;6.65;2.63;;;16.70;99.80;;;;;;6239037;23;20011;-78
2023/09/30 02:09:08;;;;;;;5.22;2.67;;;16.60;99.90;;;;;;6240024;23;20016;-76
2023/09/30 02:11:55;;;;;;;5.30;2.00;;;16.60;99.90;;;;;;6240554;23;20016;-77
2023/09/30 02:14:41;;;;;;;6.07;2.60;;;16.60;99.90;;;;;;6239485;23;20351;-79
2023/09/30 02:17:27;;;;;;;5.20;2.67;;;16.50;99.90;;;;;;6240141;23;20084;-77
2023/09/30 02:20:15;;;;;;;7.43;2.28;;;16.50;99.90;;;;;;6239510;23;20058;-71
2023/09/30 02:23:02;;;;;;;6.85;2.20;;;16.50;99.90;;;;;;6241301;23;20022;-83
2023/09/30 02:25:48;;;;;;;7.82;2.20;;;16.50;99.90;;;;;;6239036;23;20040;-82
2023/09/30 02:28:34;;;;;;;7.97;2.50;;;16.50;99.90;;;;;;6244875;23;20022;-81
2023/09/30 02:31:20;;;;;;;8.07;3.33;;;16.50;99.90;;;;;;6243821;23;20008;-84
2023/09/30 02:34:05;;;;;;;7.22;2.45;;;16.40;99.90;;;;;;6242361;23;20465;-82
2023/09/30 02:36:51;;;;;;;9.60;3.00;;;16.40;99.90;;;;;;6219028;23;20453;-75
2023/09/30 02:39:37;;;;;;;9.00;2.97;;;16.40;99.90;;;;;;6240590;23;20016;-75
2023/09/30 02:42:23;;;;;;;6.80;2.78;;;16.40;99.90;;;;;;6240864;23;20094;-75
2023/09/30 02:45:11;;;;;;;8.43;2.78;;;16.50;99.90;;;;;;6241248;23;20050;-87
2023/09/30 02:47:57;;;;;;;11.38;2.80;;;16.40;99.90;;;;;;6243671;23;20040;-81
2023/09/30 02:50:45;;;;;;;10.20;3.80;;;16.40;99.90;;;;;;6219293;23;20023;-81
2023/09/30 02:53:31;;;;;;;7.65;2.80;;;16.40;99.90;;;;;;6245850;23;20024;-83
2023/09/30 02:56:19;;;;;;;10.88;2.65;;;16.40;99.90;;;;;;6241239;22;20011;-80
2023/09/30 02:59:07;;;;;;;9.57;3.88;;;16.30;99.90;;;;;;6243241;23;20016;-82
2023/09/30 03:01:53;;;;;;;6.82;2.95;;;16.30;99.90;;;;;;6241457;23;20004;-82
2023/09/30 03:04:38;;;;;;;11.32;3.13;;;16.40;99.90;;;;;;6239788;23;20469;-82
2023/09/30 03:07:25;;;;;;;10.15;3.97;;;16.30;99.90;;;;;;6240470;23;20083;-80
2023/09/30 03:10:12;;;;;;;12.00;2.47;;;16.30;99.90;;;;;;6218503;23;20091;-79
2023/09/30 03:13:01;;;;;;;11.40;2.85;;;16.30;99.90;;;;;;6239009;23;20020;-79
2023/09/30 03:15:49;;;;;;;13.55;4.03;;;16.30;99.90;;;;;;6241003;23;20008;-84
2023/09/30 03:18:35;;;;;;;6.20;2.38;;;16.20;99.90;;;;;;6243669;23;20041;-80
2023/09/30 03:21:21;;;;;;;10.68;3.33;;;16.20;99.90;;;;;;6240420;23;20008;-76
2023/09/30 03:24:08;;;;;;;5.85;2.90;;;16.20;99.90;;;;;;6241013;23;20098;-83
2023/09/30 03:26:54;;;;;;;8.52;2.70;;;16.20;99.90;;;;;;6243116;23;20027;-81
2023/09/30 03:29:40;;;;;;;9.68;2.90;;;16.20;99.90;;;;;;6242879;23;20043;-84
2023/09/30 03:32:27;;;;;;;6.60;3.30;;;16.20;99.90;;;;;;6240872;23;20020;-80
2023/09/30 03:35:19;;;;;;;7.85;2.92;;;16.10;99.90;;;;;;6240253;23;20026;-76
2023/09/30 03:38:06;;;;;;;9.55;3.03;;;16.10;99.90;;;;;;6239198;23;20016;-78
2023/09/30 03:40:54;;;;;;;10.05;3.08;;;16.10;99.90;;;;;;6240711;23;20008;-82
2023/09/30 03:43:41;;;;;;;8.65;3.00;;;16.10;99.90;;;;;;6242540;23;20004;-79
2023/09/30 03:46:27;;;;;;;8.23;3.22;;;16.10;99.90;;;;;;6239911;23;20091;-78
2023/09/30 03:49:13;;;;;;;9.00;3.85;;;16.10;99.90;;;;;;6239906;23;20008;-80
2023/09/30 03:51:59;;;;;;;8.20;3.08;;;16.10;99.90;;;;;;6239820;23;20030;-83
2023/09/30 03:54:45;;;;;;;7.03;3.00;;;16.10;99.90;;;;;;6239475;23;20021;-80
2023/09/30 03:57:34;;;;;;;6.85;2.70;;;16.00;99.90;;;;;;6242359;23;20087;-81
2023/09/30 04:00:21;;;;;;;8.63;2.33;;;16.00;99.90;;;;;;6240748;23;20430;-79
2023/09/30 04:03:07;;;;;;;7.20;3.15;;;16.00;99.90;;;;;;6238979;23;20012;-81
2023/09/30 04:05:53;;;;;;;6.72;2.75;;;16.00;99.90;;;;;;6239525;23;20046;-80
2023/09/30 04:08:40;;;;;;;5.78;3.03;;;16.00;99.90;;;;;;6239229;23;20319;-78
2023/09/30 04:11:26;;;;;;;11.80;3.83;;;16.00;99.90;;;;;;6239298;23;20012;-78
2023/09/30 04:14:12;;;;;;;7.78;3.83;;;16.00;99.90;;;;;;6217707;23;20023;-77
2023/09/30 04:16:58;;;;;;;7.78;3.33;;;16.00;99.90;;;;;;6239718;23;20012;-77
2023/09/30 04:19:44;;;;;;;6.78;2.83;;;16.00;99.90;;;;;;6239508;23;20012;-78
2023/09/30 04:22:31;;;;;;;8.95;3.20;;;16.00;99.90;;;;;;6195915;23;20015;-77
2023/09/30 04:25:18;;;;;;;9.05;2.90;;;16.00;99.90;;;;;;6239222;23;20301;-79
2023/09/30 04:28:04;;;;;;;8.52;3.47;;;15.90;99.90;;;;;;6243046;23;20523;-80
2023/09/30 04:30:51;;;;;;;6.32;2.97;;;16.00;99.90;;;;;;6239090;23;20091;-80
2023/09/30 04:33:37;;;;;;;12.20;3.25;;;15.90;99.90;;;;;;6243036;23;20020;-81
2023/09/30 04:36:23;;;;;;;7.50;2.58;;;15.90;99.90;;;;;;6238274;23;20008;-79
2023/09/30 04:39:12;;;;;;;8.98;3.20;;;15.90;99.90;;;;;;6243081;23;20016;-79
2023/09/30 04:42:01;;;;;;;9.57;3.75;;;15.90;99.90;;;;;;6257907;23;20004;-79
2023/09/30 04:44:46;;;;;;;6.15;3.15;;;15.90;99.90;;;;;;6262856;23;20008;-77
2023/09/30 04:47:33;;;;;;;7.07;3.20;;;15.90;99.90;;;;;;6261406;23;20038;-79
2023/09/30 04:50:21;;;;;;;12.95;3.40;;;15.80;99.90;;;;;;6261359;23;20035;-80
2023/09/30 04:53:08;;;;;;;8.32;2.95;;;15.80;99.90;;;;;;6248587;23;20020;-79
2023/09/30 04:55:54;;;;;;;11.50;3.65;;;15.80;99.90;;;;;;6240991;22;20008;-80
2023/09/30 04:58:40;;;;;;;7.82;3.20;;;15.80;99.90;;;;;;6240823;23;20269;-79
2023/09/30 05:01:26;;;;;;;10.07;4.07;;;15.80;99.90;;;;;;6242324;23;20008;-87
2023/09/30 05:04:12;;;;;;;10.48;3.38;;;15.80;99.90;;;;;;6246649;23;20016;-87
2023/09/30 05:06:58;;;;;;;7.32;2.92;;;15.70;99.90;;;;;;6247007;23;20008;-86
2023/09/30 05:09:45;;;;;;;8.75;3.10;;;15.70;99.90;;;;;;6245558;23;20016;-86
2023/09/30 05:12:31;;;;;;;7.25;2.97;;;15.70;99.90;;;;;;6243907;23;20020;-89
2023/09/30 05:15:19;;;;;;;9.05;3.58;;;15.70;99.90;;;;;;6245717;23;20046;-86
2023/09/30 05:18:05;;;;;;;7.68;3.08;;;15.70;99.90;;;;;;6245419;23;20012;-83
2023/09/30 05:20:51;;;;;;;12.40;4.53;;;15.70;99.90;;;;;;6244929;23;20004;-89
2023/09/30 05:23:38;;;;;;;9.85;3.25;;;15.70;99.90;;;;;;6243443;23;20091;-88
2023/09/30 05:26:24;;;;;;;14.68;3.47;;;15.70;99.90;;;;;;6240472;23;20028;-77
2023/09/30 05:29:10;;;;;;;8.32;3.08;;;15.70;99.90;;;;;;6242147;23;20396;-76
2023/09/30 05:31:56;;;;;;;6.05;3.00;;;15.70;99.90;;;;;;6242800;23;20004;-76
2023/09/30 05:34:42;;;;;;;10.88;3.30;;;15.70;99.90;;;;;;6240606;23;20090;-75
2023/09/30 05:37:28;;;;;;;11.48;3.33;;;15.60;99.90;;;;;;6240823;23;20097;-73
2023/09/30 05:40:21;;;;;;;8.40;3.33;;;15.60;99.90;;;;;;6239893;23;20472;-75
2023/09/30 05:43:07;;;;;;;6.50;3.20;;;15.60;99.90;;;;;;6240164;23;20529;-75
2023/09/30 05:45:54;;;;;;;7.90;3.17;;;15.60;99.90;;;;;;6240550;23;20738;-75
2023/09/30 05:48:41;;;;;;;7.40;2.78;;;15.60;99.90;;;;;;6241631;23;20019;-75
2023/09/30 05:51:27;;;;;;;8.07;2.67;;;15.70;99.90;;;;;;6238594;23;20008;-75
2023/09/30 05:54:13;;;;;;;8.27;2.83;;;15.70;99.90;;;;;;6239403;23;20326;-76
2023/09/30 05:57:00;;;;;;;10.18;2.80;;;15.70;99.90;;;;;;6240145;22;20015;-79
2023/09/30 05:59:46;;;;;;;6.72;2.80;;;15.70;99.90;;;;;;6241371;23;20012;-79
2023/09/30 06:02:32;;;;;;;9.43;3.17;;;15.80;99.90;;;;;;6241352;23;20004;-81
2023/09/30 06:05:18;;;;;;;8.60;3.20;;;15.80;99.90;;;;;;6240470;23;20012;-82
2023/09/30 06:08:08;;;;;;;8.20;2.85;;;15.80;99.90;;;;;;6240961;23;20016;-80
2023/09/30 06:10:54;;;;;;;10.70;2.83;;;15.90;99.90;;;;;;6240589;23;20016;-82
2023/09/30 06:13:40;;;;;;;12.25;3.88;;;15.90;99.90;;;;;;6240658;23;20016;-76
2023/09/30 06:16:27;;;;;;;6.78;3.20;;;16.00;99.90;;;;;;6239994;23;20473;-76
2023/09/30 06:19:13;;;;;;;8.05;4.03;;;16.00;99.90;;;;;;6239936;23;20008;-80
2023/09/30 06:21:59;;;;;;;7.35;3.60;;;16.10;99.90;;;;;;6240242;23;20035;-82
2023/09/30 06:24:45;;;;;;;10.80;4.07;;;16.20;99.90;;;;;;6240365;23;20345;-81
2023/09/30 06:27:31;;;;;;;5.25;2.83;;;16.20;99.90;;;;;;6240509;23;20016;-79
2023/09/30 06:30:21;;;;;;;9.68;3.13;;;16.20;99.90;;;;;;6239753;23;20095;-77
2023/09/30 06:33:09;;;;;;;11.90;3.55;;;16.30;99.90;;;;;;6237905;23;20020;-78
2023/09/30 06:35:55;;;;;;;5.72;3.00;;;16.30;99.90;;;;;;6239966;23;20008;-74
2023/09/30 06:38:41;;;;;;;9.40;3.33;;;16.30;99.90;;;;;;6240421;23;20015;-73
2023/09/30 06:41:27;;;;;;;8.77;3.70;;;16.40;99.90;;;;;;6239645;23;20463;-69
2023/09/30 06:44:13;;;;;;;8.88;3.45;;;16.40;99.90;;;;;;6240197;23;20008;-70
2023/09/30 06:47:00;;;;;;;7.70;2.88;;;16.30;99.90;;;;;;6239336;23;20016;-73
2023/09/30 06:49:46;;;;;;;6.45;2.95;;;16.30;99.90;;;;;;6227784;23;20299;-71
2023/09/30 06:52:32;;;;;;;7.53;2.78;;;16.40;99.90;;;;;;6239515;23;20063;-71
2023/09/30 06:55:18;;;;;;;11.27;3.30;;;16.40;99.90;;;;;;6239129;22;20012;-71
2023/09/30 06:58:07;;;;;;;8.38;3.17;;;16.50;99.90;;;;;;6239318;23;20047;-71
2023/09/30 07:00:56;;;;;;;10.10;3.30;;;16.50;99.90;;;;;;6239181;23;20012;-72
2023/09/30 07:03:42;;;;;;;6.20;3.35;;;16.60;99.90;;;;;;6240674;23;20446;-71
2023/09/30 07:06:28;;;;;;;12.82;2.75;;;16.60;99.90;;;;;;6238926;23;20012;-70
2023/09/30 07:09:14;;;;;;;12.32;2.95;;;16.70;99.90;;;;;;6239635;23;20648;-71
2023/09/30 07:12:00;;;;;;;5.95;2.92;;;16.70;99.90;;;;;;6239957;23;20489;-71
2023/09/30 07:14:46;;;;;;;7.78;3.53;;;16.80;99.90;;;;;;6217943;23;20401;-69
2023/09/30 07:17:33;;;;;;;8.13;3.25;;;16.90;99.90;;;;;;6239779;23;20453;-71
2023/09/30 07:20:20;;;;;;;9.18;3.05;;;17.00;99.90;;;;;;6239941;23;20008;-72
2023/09/30 07:23:06;;;;;;;8.05;2.85;;;17.00;99.90;;;;;;6239929;23;20008;-70
2023/09/30 07:25:52;;;;;;;8.65;3.42;;;17.10;99.90;;;;;;6239501;23;20028;-71
2023/09/30 07:28:38;;;;;;;9.07;3.03;;;17.20;99.90;;;;;;6238775;23;20004;-68
2023/09/30 07:31:25;;;;;;;9.27;2.65;;;17.20;99.90;;;;;;6239805;23;20243;-69
2023/09/30 07:34:11;;;;;;;7.80;2.60;;;17.30;99.90;;;;;;6239693;23;20024;-69
2023/09/30 07:36:57;;;;;;;9.10;3.72;;;17.40;99.90;;;;;;6238095;23;20342;-68
2023/09/30 07:39:43;;;;;;;5.65;2.38;;;17.40;99.90;;;;;;6238088;23;20350;-69
2023/09/30 07:42:29;;;;;;;7.93;2.92;;;17.50;99.90;;;;;;6237136;23;20012;-69
2023/09/30 07:45:16;;;;;;;12.85;3.67;;;17.50;99.90;;;;;;6238415;23;20008;-69
2023/09/30 07:48:04;;;;;;;13.30;3.00;;;17.60;99.90;;;;;;6240340;23;20503;-71
2023/09/30 07:50:50;;;;;;;8.38;2.83;;;17.60;99.90;;;;;;6238929;23;20008;-70
2023/09/30 07:53:36;;;;;;;10.07;3.10;;;17.60;99.90;;;;;;6239015;23;20023;-68
2023/09/30 07:56:22;;;;;;;6.72;2.67;;;17.60;99.90;;;;;;6239096;22;20015;-69
2023/09/30 07:59:09;;;;;;;5.43;2.92;;;17.70;99.90;;;;;;6237905;23;20075;-69
2023/09/30 08:01:57;;;;;;;7.13;2.53;;;17.60;99.90;;;;;;6241635;23;20009;-63
2023/09/30 08:04:43;;;;;;;12.18;2.70;;;17.70;99.80;;;;;;6238607;23;20042;-64
2023/09/30 08:07:29;;;;;;;8.45;2.72;;;17.70;99.90;;;;;;6238270;23;20013;-64
2023/09/30 08:10:16;;;;;;;8.90;2.70;;;17.80;99.90;;;;;;6239091;23;20019;-63
2023/09/30 08:13:03;;;;;;;9.50;2.50;;;17.80;99.70;;;;;;6239665;23;20027;-64
2023/09/30 08:15:51;;;;;;;12.90;2.38;;;17.90;99.60;;;;;;6239354;23;20012;-63
2023/09/30 08:18:37;;;;;;;9.95;3.85;;;18.00;99.50;;;;;;6239422;23;20019;-63
2023/09/30 08:21:23;;;;;;;7.57;2.50;;;18.00;99.50;;;;;;6219413;23;20008;-63
2023/09/30 08:24:09;;;;;;;6.10;2.60;;;18.00;99.50;;;;;;6240550;23;20048;-65
2023/09/30 08:26:56;;;;;;;7.28;2.58;;;18.10;99.40;;;;;;6218244;23;20366;-63
2023/09/30 08:29:42;;;;;;;9.18;2.95;;;18.20;99.30;;;;;;6241263;23;20271;-63
2023/09/30 08:32:28;;;;;;;13.57;2.38;;;18.30;99.20;;;;;;6241275;23;20000;-64
2023/09/30 08:35:15;;;;;;;9.70;3.55;;;18.40;99.20;;;;;;6242159;23;20361;-62
2023/09/30 08:38:02;;;;;;;8.95;2.83;;;18.50;99.10;;;;;;6239988;23;20004;-62
2023/09/30 08:40:52;;;;;;;11.88;3.55;;;18.50;98.90;;;;;;6241469;23;20012;-61
2023/09/30 08:43:40;;;;;;;11.07;2.90;;;18.60;98.70;;;;;;6241034;23;20365;-62
2023/09/30 08:46:26;;;;;;;8.13;2.50;;;18.60;98.50;;;;;;6241377;23;20019;-63
2023/09/30 08:49:14;;;;;;;7.50;2.63;;;18.70;98.40;;;;;;6242814;23;20004;-63
2023/09/30 08:52:01;;;;;;;9.15;2.38;;;18.70;98.10;;;;;;6241011;23;20449;-62
2023/09/30 08:54:48;;;;;;;6.47;2.83;;;18.60;98.20;;;;;;6228513;23;20342;-62
2023/09/30 08:57:37;;;;;;;14.10;2.67;;;18.60;98.20;;;;;;6243079;23;20012;-61
2023/09/30 09:00:24;;;;;;;9.38;2.38;;;18.60;98.10;;;;;;6241135;23;20011;-62
2023/09/30 09:03:10;;;;;;;7.13;2.53;;;18.60;98.00;;;;;;6239980;23;20008;-62
2023/09/30 09:05:56;;;;;;;6.65;2.10;;;18.60;98.00;;;;;;6240074;23;20008;-62
2023/09/30 09:08:42;;;;;;;7.35;2.10;;;18.60;98.00;;;;;;6216761;23;20011;-62
2023/09/30 09:11:37;;;;;;;7.13;2.53;;;18.60;98.00;;;;;;6239636;23;20008;-62
2023/09/30 09:14:38;;;;;;;10.00;2.95;;;18.60;98.00;;;;;;6240567;23;20768;-62
2023/09/30 09:17:39;;;;;;;14.05;2.95;;;18.60;97.90;;;;;;6240239;23;20074;-62
2023/09/30 09:20:25;;;;;;;7.32;2.55;;;18.60;97.90;;;;;;6240258;23;20016;-62
2023/09/30 09:23:15;;;;;;;8.52;2.10;;;18.60;97.80;;;;;;6241350;23;20319;-61
2023/09/30 09:26:01;;;;;;;13.25;2.72;;;18.60;97.70;;;;;;6242225;23;20479;-61
2023/09/30 09:28:48;;;;;;;10.55;2.53;;;18.70;97.70;;;;;;6239732;23;20063;-62
2023/09/30 09:31:35;;;;;;;13.85;3.28;;;18.70;97.70;;;;;;6239234;23;20098;-61
2023/09/30 09:34:21;;;;;;;6.93;2.42;;;18.70;97.60;;;;;;6238997;23;20016;-61
2023/09/30 09:37:19;;;;;;;8.70;2.45;;;18.70;97.60;;;;;;6238656;23;20012;-63
2023/09/30 09:40:07;;;;;;;8.25;2.53;;;18.70;97.60;;;;;;6240313;23;20334;-62
2023/09/30 09:42:55;;;;;;;6.15;2.10;;;18.70;97.40;;;;;;6239887;23;20010;-64
2023/09/30 09:45:43;;;;;;;12.63;2.30;;;18.70;97.50;;;;;;6241774;23;20252;-63
2023/09/30 09:48:30;;;;;;;8.80;2.65;;;18.70;97.50;;;;;;6236120;23;20008;-63
2023/09/30 09:51:16;;;;;;;5.40;2.22;;;18.80;97.60;;;;;;6238384;23;20388;-62
2023/09/30 09:54:04;;;;;;;10.60;2.17;;;18.90;97.60;;;;;;6241169;23;20020;-63
2023/09/30 09:56:53;;;;;;;9.77;2.92;;;19.00;97.50;;;;;;6240905;22;20441;-62
2023/09/30 09:59:40;;;;;;;9.88;2.90;;;19.10;97.20;;;;;;6241708;23;20012;-63
2023/09/30 10:02:27;;;;;;;7.72;2.80;;;19.10;97.30;;;;;;6238303;23;20326;-64
2023/09/30 10:05:15;;;;;;;12.55;2.55;;;19.20;97.20;;;;;;6238526;23;20019;-63
2023/09/30 10:08:09;;;;;;;10.52;2.28;;;19.30;97.00;;;;;;6241550;23;20012;-63
2023/09/30 10:10:58;;;;;;;7.18;2.47;;;19.40;96.80;;;;;;6238794;23;20008;-62
2023/09/30 10:14:00;;;;;;;6.15;2.85;;;19.40;96.70;;;;;;6238810;23;20023;-61
2023/09/30 10:16:47;;;;;;;9.68;3.00;;;19.50;96.70;;;;;;6238900;23;20022;-63
2023/09/30 10:19:32;;;;;;;8.43;2.45;;;19.60;96.50;;;;;;6241566;23;20102;-63
2023/09/30 10:22:25;;;;;;;12.75;2.83;;;19.60;96.20;;;;;;6238562;23;20004;-62
2023/09/30 10:25:34;;;;;;;8.63;3.05;;;19.70;96.10;;;;;;6239031;23;20342;-63
2023/09/30 10:28:37;;;;;;;5.88;1.80;;;19.80;96.10;;;;;;6239082;23;20461;-63
2023/09/30 10:31:25;;;;;;;5.65;1.92;;;19.90;95.80;;;;;;6240894;23;20016;-63
2023/09/30 10:34:11;;;;;;;4.20;2.20;;;19.90;95.60;;;;;;6238495;23;20397;-63
2023/09/30 10:36:57;;;;;;;14.65;2.58;;;20.00;95.20;;;;;;6239615;23;20075;-60
2023/09/30 10:39:55;;;;;;;9.77;2.13;;;20.00;94.60;;;;;;6239649;23;20012;-60
2023/09/30 10:42:51;;;;;;;5.68;2.10;;;20.00;94.40;;;;;;6237652;23;20004;-68
2023/09/30 10:45:43;;;;;;;13.07;3.30;;;20.00;94.10;;;;;;6238762;23;20438;-70
2023/09/30 10:48:31;;;;;;;7.13;2.50;;;20.10;94.20;;;;;;6238188;23;20005;-70
2023/09/30 10:51:21;;;;;;;8.95;3.13;;;20.10;94.40;;;;;;6240450;23;20400;-70
2023/09/30 10:54:07;;;;;;;7.22;2.00;;;20.20;93.90;;;;;;6239976;23;20537;-70
2023/09/30 10:56:54;;;;;;;5.63;2.42;;;20.20;93.80;;;;;;6239557;22;20062;-69
2023/09/30 10:59:40;;;;;;;9.57;2.65;;;20.20;93.40;;;;;;6239499;23;20020;-69
2023/09/30 11:02:26;;;;;;;11.95;2.42;;;20.20;93.50;;;;;;6217676;23;20147;-70
2023/09/30 11:05:13;;;;;;;6.45;2.03;;;20.30;93.30;;;;;;6239714;23;20093;-68
2023/09/30 11:08:03;;;;;;;4.32;1.88;;;20.30;92.90;;;;;;6240571;23;20059;-69
2023/09/30 11:10:50;;;;;;;9.63;1.98;;;20.40;93.10;;;;;;6228322;23;20012;-68
2023/09/30 11:13:36;;;;;;;5.80;1.75;;;20.50;93.10;;;;;;6239072;23;20028;-69
2023/09/30 11:16:22;;;;;;;5.60;2.15;;;20.60;93.00;;;;;;6238406;23;20008;-69
2023/09/30 11:19:09;;;;;;;4.78;1.80;;;20.70;92.40;;;;;;6218017;23;20331;-69
2023/09/30 11:21:55;;;;;;;2.60;1.65;;;20.70;92.30;;;;;;6238132;23;20012;-68
2023/09/30 11:24:41;;;;;;;6.25;2.28;;;20.80;92.40;;;;;;6239135;23;20067;-68
2023/09/30 11:27:27;;;;;;;7.35;1.98;;;20.80;91.80;;;;;;6239591;23;20468;-68
2023/09/30 11:30:14;;;;;;;8.07;2.00;;;20.80;91.70;;;;;;6240522;23;20446;-70
2023/09/30 11:33:00;;;;;;;6.68;2.22;;;20.80;91.70;;;;;;6238876;23;20016;-68
2023/09/30 11:36:05;;;;;;;7.30;2.40;;;20.80;91.30;;;;;;6240143;23;20086;-68
2023/09/30 11:38:54;;;;;;;5.18;1.88;;;20.90;91.60;;;;;;6239707;23;20091;-69
2023/09/30 11:41:43;;;;;;;5.10;1.73;;;21.00;91.50;;;;;;6239722;23;20008;-68
2023/09/30 11:44:30;;;;;;;4.90;2.28;;;21.00;91.40;;;;;;6216364;23;20020;-68
2023/09/30 11:47:27;;;;;;;7.82;2.00;;;21.00;91.10;;;;;;6241005;23;20775;-68
2023/09/30 11:50:14;;;;;;;6.45;1.83;;;21.00;90.90;;;;;;6240151;23;20040;-68
2023/09/30 11:53:00;;;;;;;9.02;1.95;;;21.00;90.90;;;;;;6237903;23;20043;-68
2023/09/30 11:55:46;;;;;;;3.30;1.63;;;21.10;91.00;;;;;;6238203;22;20012;-69
2023/09/30 11:58:33;;;;;;;9.38;2.20;;;21.20;90.50;;;;;;6238299;23;20023;-69
2023/09/30 12:01:21;;;;;;;9.63;2.38;;;21.20;90.30;;;;;;6241277;23;20016;-69
2023/09/30 12:04:08;;;;;;;4.85;1.77;;;21.30;90.40;;;;;;6238471;23;20017;-68
2023/09/30 12:06:54;;;;;;;3.88;1.98;;;21.40;90.30;;;;;;6240318;23;20012;-68
2023/09/30 12:09:40;;;;;;;4.25;1.60;;;21.50;90.20;;;;;;6239589;23;20466;-68
2023/09/30 12:12:26;;;;;;;10.27;1.60;;;21.50;89.60;;;;;;6240906;23;20082;-69
2023/09/30 12:15:13;;;;;;;7.88;1.52;;;21.50;88.60;;;;;;6237714;23;20408;-68
2023/09/30 12:17:59;;;;;;;9.10;2.30;;;21.50;88.80;;;;;;6238787;23;20005;-70
2023/09/30 12:20:45;;;;;;;9.63;2.50;;;21.60;88.70;;;;;;6238964;23;20012;-69
2023/09/30 12:23:31;;;;;;;4.45;1.80;;;21.60;88.80;;;;;;6238738;23;20046;-69
2023/09/30 12:26:19;;;;;;;3.53;1.30;;;21.70;89.10;;;;;;6239024;23;20454;-69
2023/09/30 12:29:05;;;;;;;11.10;2.15;;;21.70;89.10;;;;;;6237889;23;20079;-70
2023/09/30 12:31:52;;;;;;;4.57;1.50;;;21.70;88.90;;;;;;6238082;23;20015;-69
2023/09/30 12:34:38;;;;;;;6.70;1.60;;;21.70;88.70;;;;;;6240364;23;20358;-68
2023/09/30 12:37:24;;;;;;;5.28;2.05;;;21.60;88.00;;;;;;6238317;23;20012;-68
2023/09/30 12:40:11;;;;;;;5.40;2.00;;;21.60;87.70;;;;;;6238778;23;20462;-68
2023/09/30 12:42:57;;;;;;;4.68;1.83;;;21.60;87.40;;;;;;6238507;23;20050;-68
2023/09/30 12:45:43;;;;;;;3.80;1.70;;;21.60;87.00;;;;;;6238313;23;20087;-68
2023/09/30 12:48:29;;;;;;;5.95;1.98;;;21.60;86.70;;;;;;6238100;23;20039;-68
2023/09/30 12:51:15;;;;;;;3.92;1.52;;;21.60;86.30;;;;;;6237605;23;20004;-69
2023/09/30 12:54:01;;;;;;;4.13;1.33;;;21.60;86.50;;;;;;6238520;23;20016;-68
2023/09/30 12:56:47;;;;;;;7.60;2.10;;;21.50;86.10;;;;;;6234586;22;20020;-69
2023/09/30 12:59:34;;;;;;;5.63;1.48;;;21.50;85.40;;;;;;6240533;23;20043;-68
2023/09/30 13:02:20;;;;;;;2.03;1.23;;;21.40;84.70;;;;;;6240231;23;20008;-68
2023/09/30 13:05:07;;;;;;;4.28;1.77;;;21.30;84.40;;;;;;6240887;23;20008;-68
2023/09/30 13:07:53;;;;;;;6.32;1.50;;;21.30;83.60;;;;;;6239979;23;20343;-68
2023/09/30 13:10:39;;;;;;;5.03;1.67;;;21.30;83.70;;;;;;6238559;23;20019;-68
2023/09/30 13:13:25;;;;;;;5.60;1.60;;;21.20;83.30;;;;;;6240320;23;20016;-68
2023/09/30 13:16:11;;;;;;;5.57;1.60;;;21.10;83.50;;;;;;6240138;23;20011;-68
2023/09/30 13:18:57;;;;;;;9.18;2.10;;;21.10;82.90;;;;;;6241867;23;20405;-69
2023/09/30 13:21:43;;;;;;;8.40;1.60;;;21.00;83.00;;;;;;6240341;23;20036;-68
2023/09/30 13:24:29;;;;;;;3.53;1.50;;;21.00;83.10;;;;;;6239644;23;20397;-68
2023/09/30 13:27:16;;;;;;;4.10;1.60;;;21.00;83.10;;;;;;6241222;23;20015;-69
2023/09/30 13:30:02;;;;;;;3.53;1.33;;;21.00;82.60;;;;;;6240051;23;20012;-68
2023/09/30 13:32:48;;;;;;;4.72;1.88;;;21.00;82.80;;;;;;6242481;23;20020;-68
2023/09/30 13:35:36;;;;;;;6.05;1.63;;;21.00;82.40;;;;;;6241676;23;20016;-68
2023/09/30 13:38:22;;;;;;;7.93;1.92;;;21.00;82.60;;;;;;6242232;23;20015;-69
2023/09/30 13:41:08;;;;;;;3.50;1.45;;;21.00;82.70;;;;;;6240161;23;20012;-68
2023/09/30 13:43:54;;;;;;;3.05;1.58;;;21.10;82.80;;;;;;6239971;23;20016;-68
2023/09/30 13:46:40;;;;;;;10.32;1.83;;;21.10;82.90;;;;;;6239894;23;20442;-68
2023/09/30 13:49:28;;;;;;;3.20;1.55;;;21.20;82.80;;;;;;6240517;23;20078;-69
2023/09/30 13:52:14;;;;;;;6.00;1.67;;;21.20;83.00;;;;;;6239498;23;20246;-68
2023/09/30 13:55:00;;;;;;;4.65;1.70;;;21.30;82.60;;;;;;6238653;23;20165;-68
2023/09/30 13:57:46;;;;;;;7.95;2.03;;;21.30;81.90;;;;;;6240028;23;20095;-68
2023/09/30 14:00:33;;;;;;;3.97;1.80;;;21.40;82.10;;;;;;6238591;23;20488;-69
2023/09/30 14:03:19;;;;;;;2.60;1.50;;;21.40;81.80;;;;;;6239382;23;20012;-70
2023/09/30 14:06:14;;;;;;;6.53;2.38;;;21.50;81.60;;;;;;6237169;23;20565;-70
2023/09/30 14:09:00;;;;;;;;;;;21.50;81.40;;;;;;6240631;23;20015;-70
2023/09/30 14:11:47;;;;;;;3.30;1.27;;;21.60;82.70;;;;;;6238259;23;20234;-69
2023/09/30 14:14:34;;;;;;;4.88;1.80;;;21.60;81.90;;;;;;6238146;23;20016;-68
2023/09/30 14:17:20;;;;;;;4.13;1.92;;;21.60;81.00;;;;;;6238698;23;20032;-69
2023/09/30 14:20:06;;;;;;;6.03;2.00;;;21.60;80.60;;;;;;6239016;23;20012;-67
2023/09/30 14:22:53;;;;;;;3.17;1.23;;;21.60;80.40;;;;;;6239716;23;20100;-67
2023/09/30 14:25:39;;;;;;;7.45;2.47;;;21.60;80.30;;;;;;6238993;23;20020;-68
2023/09/30 14:28:25;;;;;;;3.30;1.80;;;21.60;80.20;;;;;;6238504;23;20012;-69